KDAA/DAA METAR and TAF weather

Enter ICAO airport designator
Station Type Date Time Source
KDAA METAR 2022/01/29 09:56 UTC NOAA

KDAA 290956Z AUTO 00000KT 10SM FEW050 M03/M07 A2984 RMK AO2 UPB0858E04 SLP108 P0000 T10311074 $


Station Type Date Time Source
KDAA Decoded METAR 2022/01/29 09:56 UTC NOAA

Fort Belvoir, VA, United States (KDAA) 38-43N 077-11W
Jan 29, 2022 - 04:56 AM EST / 2022.01.29 0956 UTC
Wind: Calm:0
Visibility: 10 mile(s):0
Sky conditions: mostly clear
Precipitation last hour: A trace
Temperature: 26.4 F (-3.1 C)
Dew Point: 18.7 F (-7.4 C)
Relative Humidity: 72%
Pressure (altimeter): 29.84 in. Hg (1010 hPa)
ob: KDAA 290956Z AUTO 00000KT 10SM FEW050 M03/M07 A2984 RMK AO2 UPB0858E04 SLP108 P0000 T10311074
cycle: 10

Station Type Date Time Source
KDAA TAF 2022/01/28 21:42 UTC NOAA

TAF KDAA 282100Z 2821/3003 VRB06KT 1600 -SN OVC010 620109 QNH2997INS
BECMG 2823/2824 VRB06KT 9000 -SN OVC009 650094 620505 QNH2997INS
BECMG 2900/2901 VRB06KT 4800 -SN OVC007 650094 620505 QNH2991INS
BECMG 2904/2905 01006KT 9000 -SN OVC009 620093 QNH2985INS
BECMG 2907/2908 35012KT 9000 -SN SCT009 OVC015 620155 QNH2981INS
BECMG 2912/2913 33012KT 9999 NSW FEW020 BKN035 OVC050 QNH2986INS
BECMG 2914/2915 32012G18KT 9999 FEW060 SCT090 OVC120 QNH2989INS
BECMG 2915/2916 32020G35KT 9999 SCT110 OVC200 520003 QNH2987INS
BECMG 2923/2924 31010KT 9999 SKC QNH2993INS TXM01/2903Z TNM08/2914Z LAST NO
AMDS AFT 2902 NEXT 3113

Example: see airport list